Time;durP1;ratioP1;P1;durP2;ratioP2;P2;SDS_P1;SDS_P2;PMS_P1;PMS_P2;Temp;Humidity;BMP_temperature;BMP_pressure;BME280_temperature;BME280_humidity;BME280_pressure;Samples;Min_cycle;Max_cycle;Signal;HPM_P1;HPM_P2
2023/10/22 00:00:43;;;;;;;;;3.50;3.50;;;;;17.19;87.64;99381.41;6223112;22;44709;-86
2023/10/22 00:03:09;;;;;;;;;4.00;2.67;;;;;17.15;87.68;99393.19;6245469;22;44858;-86
2023/10/22 00:05:34;;;;;;;;;3.75;3.00;;;;;17.15;87.55;99390.50;6220746;22;44835;-87
2023/10/22 00:08:00;;;;;;;;;4.75;2.25;;;;;17.15;87.64;99390.50;6223516;22;47107;-86
2023/10/22 00:10:25;;;;;;;;;2.25;2.25;;;;;17.14;87.55;99394.97;6225013;22;44782;-87
2023/10/22 00:12:51;;;;;;;;;2.00;2.00;;;;;17.17;87.90;99397.56;6222501;22;44861;-88
2023/10/22 00:15:16;;;;;;;;;5.33;3.33;;;;;17.15;87.46;99399.44;6223390;22;45253;-87
2023/10/22 00:17:42;;;;;;;;;4.50;2.75;;;;;17.15;87.35;99406.63;6222462;22;45274;-88
2023/10/22 00:20:10;;;;;;;;;2.25;1.25;;;;;17.16;87.06;99403.00;6222898;22;45318;-86
2023/10/22 00:22:35;;;;;;;;;4.67;2.67;;;;;17.16;87.09;99413.75;6223453;22;45398;-87
2023/10/22 00:25:02;;;;;;;;;4.00;2.67;;;;;17.18;87.02;99412.75;6222088;22;44967;-88
2023/10/22 00:27:34;;;;;;;;;6.00;3.00;;;;;17.17;86.99;99415.50;6225573;22;45483;-87
2023/10/22 00:30:00;;;;;;;;;2.50;2.25;;;;;17.09;86.69;99407.72;6249242;22;44694;-86
2023/10/22 00:32:26;;;;;;;;;4.00;2.25;;;;;17.17;86.63;99423.56;6223979;22;44807;-88
2023/10/22 00:34:51;;;;;;;;;3.00;2.00;;;;;17.15;86.67;99433.50;6247281;22;44847;-88
2023/10/22 00:37:16;;;;;;;;;3.67;3.33;;;;;17.15;86.92;99433.50;6220569;22;46888;-88
2023/10/22 00:39:43;;;;;;;;;5.00;4.67;;;;;17.13;86.79;99441.59;6220870;22;45457;-87
2023/10/22 00:42:11;;;;;;;;;3.25;3.25;;;;;17.27;86.84;99427.69;6220215;22;44893;-87
2023/10/22 00:44:37;;;;;;;;;4.00;2.67;;;;;17.18;86.63;99441.44;6222207;22;45235;-87
2023/10/22 00:47:04;;;;;;;;;4.00;3.33;;;;;17.27;86.85;99437.53;6245116;22;46587;-88
2023/10/22 00:49:29;;;;;;;;;4.00;4.00;;;;;17.13;86.57;99440.72;6220283;22;45295;-88
2023/10/22 00:51:56;;;;;;;;;3.00;2.67;;;;;17.17;86.55;99445.06;6220958;22;45395;-88
2023/10/22 00:54:22;;;;;;;;;5.00;3.00;;;;;17.17;86.86;99451.31;6245320;22;44773;-88
2023/10/22 00:56:50;;;;;;;;;5.00;1.33;;;;;17.19;86.22;99446.75;6221043;22;45109;-88
2023/10/22 00:59:16;;;;;;;;;2.00;2.00;;;;;17.11;86.44;99445.28;6219908;22;45388;-88
2023/10/22 01:01:42;;;;;;;;;4.00;3.00;;;;;17.14;85.77;99456.78;6219792;22;44809;-89
2023/10/22 01:04:08;;;;;;;;;6.00;4.00;;;;;17.12;85.91;99452.38;6221301;22;44833;-89
2023/10/22 01:06:35;;;;;;;;;7.50;4.00;;;;;17.30;85.43;99457.13;6219785;22;46933;-88
2023/10/22 01:09:01;;;;;;;;;1.25;1.25;;;;;17.16;85.30;99472.84;6220398;22;44826;-89
2023/10/22 01:11:27;;;;;;;;;2.00;2.00;;;;;17.10;85.74;99462.31;6219167;22;44853;-87
2023/10/22 01:13:53;;;;;;;;;5.00;1.00;;;;;17.17;84.97;99463.88;6244302;22;45064;-88
2023/10/22 01:16:18;;;;;;;;;4.00;3.00;;;;;17.09;84.99;99461.44;6216606;22;45356;-88
2023/10/22 01:18:44;;;;;;;;;1.75;1.75;;;;;17.10;84.70;99478.44;6218072;22;44835;-88
2023/10/22 01:21:11;;;;;;;;;4.00;3.33;;;;;17.24;84.75;99484.22;6222219;22;44857;-88
2023/10/22 01:23:37;;;;;;;;;3.33;3.33;;;;;17.11;84.46;99477.50;6220012;22;44850;-88
2023/10/22 01:26:04;;;;;;;;;2.00;2.00;;;;;17.10;84.09;99483.78;6247813;22;46891;-89
2023/10/22 01:28:30;;;;;;;;;6.00;1.75;;;;;17.15;84.43;99489.91;6224563;22;44784;-89
2023/10/22 01:30:57;;;;;;;;;5.00;4.00;;;;;17.25;84.05;99494.03;6222760;22;44818;-89
2023/10/22 01:33:22;;;;;;;;;3.00;3.00;;;;;17.15;84.98;99490.78;6224245;22;44846;-88
2023/10/22 01:35:48;;;;;;;;;3.75;1.50;;;;;17.19;84.02;99491.56;6222992;22;48595;-87
2023/10/22 01:38:13;;;;;;;;;3.00;2.00;;;;;17.13;84.70;99483.72;6218964;22;44757;-89
2023/10/22 01:40:39;;;;;;;;;4.33;3.33;;;;;17.14;84.22;99480.06;6222880;22;44772;-89
2023/10/22 01:43:04;;;;;;;;;4.25;3.75;;;;;17.14;83.85;99488.13;6220969;22;44810;-88
2023/10/22 01:45:29;;;;;;;;;2.33;1.00;;;;;17.14;84.13;99499.75;6244799;22;47000;-87
2023/10/22 01:47:56;;;;;;;;;3.67;2.33;;;;;17.14;83.67;99485.44;6217959;22;44828;-88
2023/10/22 01:50:21;;;;;;;;;2.00;1.00;;;;;17.14;83.86;99499.75;6219570;22;45241;-89
2023/10/22 01:52:46;;;;;;;;;1.50;1.50;;;;;17.16;83.91;99500.59;6222903;22;44733;-88
2023/10/22 01:55:12;;;;;;;;;2.33;2.33;;;;;17.13;83.66;99500.69;6222082;22;47281;-88
2023/10/22 01:57:38;;;;;;;;;3.00;2.67;;;;;17.19;83.40;99502.31;6223992;22;45335;-88
2023/10/22 02:00:04;;;;;;;;;2.00;2.00;;;;;17.14;83.97;99497.06;6221770;22;45368;-88
2023/10/22 02:02:29;;;;;;;;;3.00;3.00;;;;;17.11;83.41;99504.38;6246134;22;44877;-87
2023/10/22 02:04:56;;;;;;;;;2.00;2.00;;;;;17.27;83.83;99508.31;6222077;22;45565;-89
2023/10/22 02:07:21;;;;;;;;;1.33;1.33;;;;;17.13;83.42;99513.25;6245449;22;44936;-88
2023/10/22 02:09:47;;;;;;;;;2.00;2.00;;;;;17.10;83.17;99503.47;6245936;22;45281;-88
2023/10/22 02:12:12;;;;;;;;;1.00;1.00;;;;;17.07;83.65;99502.72;6219883;22;45523;-88
2023/10/22 02:14:37;;;;;;;;;4.33;2.00;;;;;17.06;83.48;99517.06;6219059;22;47638;-87
2023/10/22 02:17:03;;;;;;;;;3.00;3.00;;;;;17.06;83.43;99506.31;6221374;22;44745;-87
2023/10/22 02:19:29;;;;;;;;;3.00;3.00;;;;;17.03;83.31;99515.38;6223957;22;44842;-88
2023/10/22 02:21:54;;;;;;;;;1.00;1.00;;;;;17.05;83.73;99524.25;6224225;22;44820;-86
2023/10/22 02:24:20;;;;;;;;;2.00;1.25;;;;;17.02;83.01;99526.16;6246319;22;47071;-89
2023/10/22 02:26:46;;;;;;;;;1.75;1.50;;;;;17.11;83.55;99529.41;6245103;22;45265;-85
2023/10/22 02:29:13;;;;;;;;;5.67;2.67;;;;;17.02;83.72;99537.75;6219775;22;44922;-85
2023/10/22 02:31:39;;;;;;;;;3.00;2.00;;;;;16.99;83.88;99532.50;6245197;22;45047;-85
2023/10/22 02:34:06;;;;;;;;;1.25;1.25;;;;;17.10;83.45;99540.22;6218558;22;47030;-85
2023/10/22 02:36:32;;;;;;;;;2.25;1.25;;;;;17.02;83.21;99543.13;6218619;22;45317;-85
2023/10/22 02:38:59;;;;;;;;;9.67;3.67;;;;;16.99;83.52;99544.13;6218094;22;45341;-85
2023/10/22 02:41:24;;;;;;;;;5.00;2.33;;;;;16.97;83.65;99535.22;6221544;22;44771;-86
2023/10/22 02:43:50;;;;;;;;;1.00;1.00;;;;;17.00;83.56;99551.22;6244066;22;46959;-86
2023/10/22 02:46:15;;;;;;;;;4.00;4.00;;;;;16.98;83.33;99550.41;6219452;22;45382;-86
2023/10/22 02:48:41;;;;;;;;;1.75;1.75;;;;;16.91;83.09;99537.25;6218913;22;45349;-85
2023/10/22 02:51:06;;;;;;;;;2.25;2.25;;;;;16.97;83.59;99547.78;6245149;22;44827;-85
2023/10/22 02:53:32;;;;;;;;;5.00;3.75;;;;;16.93;83.73;99556.88;6217626;22;46886;-85
2023/10/22 02:56:01;;;;;;;;;3.00;2.00;;;;;17.13;83.72;99550.88;6217150;22;45336;-85
2023/10/22 02:58:30;;;;;;;;;4.25;3.25;;;;;16.97;84.11;99563.91;6222828;22;45414;-86
2023/10/22 03:01:03;;;;;;;;;2.25;1.00;;;;;17.13;84.17;99565.19;6221350;22;44742;-86
2023/10/22 03:03:29;;;;;;;;;3.50;2.00;;;;;16.91;84.55;99573.03;6246272;22;47714;-85
2023/10/22 03:05:58;;;;;;;;;2.25;2.25;;;;;17.07;84.66;99583.31;6244068;22;45245;-85
2023/10/22 03:08:23;;;;;;;;;2.25;2.25;;;;;16.90;84.96;99573.94;6245411;22;45320;-84
2023/10/22 03:10:50;;;;;;;;;1.00;1.00;;;;;16.87;84.83;99574.03;6224277;22;44772;-84
2023/10/22 03:13:15;;;;;;;;;1.25;1.25;;;;;16.90;85.44;99579.31;6222343;22;47227;-84
2023/10/22 03:15:40;;;;;;;;;3.25;2.50;;;;;16.88;84.90;99586.53;6245032;22;45535;-84
2023/10/22 03:18:07;;;;;;;;;5.00;2.00;;;;;16.95;85.20;99595.31;6221669;22;44825;-85
2023/10/22 03:20:33;;;;;;;;;3.00;2.00;;;;;16.93;84.75;99583.72;6247109;22;44745;-84
2023/10/22 03:23:01;;;;;;;;;5.00;3.50;;;;;16.95;84.78;99598.84;6220588;22;47267;-83
2023/10/22 03:25:27;;;;;;;;;4.00;3.00;;;;;16.89;85.00;99592.81;6245316;22;45666;-84
2023/10/22 03:27:53;;;;;;;;;4.00;1.25;;;;;16.86;84.81;99599.13;6221367;22;44784;-86
2023/10/22 03:30:58;;;;;;;;;3.67;2.00;;;;;17.18;84.15;99605.31;6222665;22;45308;-87
2023/10/22 03:33:23;;;;;;;;;3.00;3.00;;;;;16.87;84.66;99606.28;6222588;22;47458;-88
2023/10/22 03:35:48;;;;;;;;;2.75;2.00;;;;;16.88;84.36;99591.03;6248649;22;45129;-89
2023/10/22 03:38:14;;;;;;;;;3.25;1.75;;;;;16.90;84.67;99598.09;6221689;22;45380;-84
2023/10/22 03:40:39;;;;;;;;;4.00;2.00;;;;;16.92;84.68;99615.06;6241538;22;45195;-84
2023/10/22 03:43:05;;;;;;;;;3.00;1.75;;;;;16.82;84.49;99601.94;6216045;22;46911;-84
2023/10/22 03:45:31;;;;;;;;;2.00;2.00;;;;;16.80;85.04;99601.97;6219392;22;44833;-84
2023/10/22 03:47:56;;;;;;;;;4.00;2.50;;;;;16.85;84.79;99613.50;6242251;22;45320;-83
2023/10/22 03:50:23;;;;;;;;;3.00;1.25;;;;;16.85;84.60;99613.50;6217834;22;45240;-83
2023/10/22 03:52:48;;;;;;;;;2.75;1.75;;;;;16.94;84.73;99632.00;6216500;22;47216;-84
2023/10/22 03:55:14;;;;;;;;;1.75;1.75;;;;;16.92;85.20;99631.16;6235834;22;45193;-84
2023/10/22 03:57:39;;;;;;;;;1.50;0.00;;;;;16.85;85.33;99624.22;6225868;22;44761;-84
2023/10/22 04:00:07;;;;;;;;;0.00;0.00;;;;;16.87;85.42;99622.38;6251560;22;45257;-85
2023/10/22 04:02:32;;;;;;;;;1.00;1.00;;;;;16.84;85.47;99629.63;6219806;22;47329;-84
2023/10/22 04:04:58;;;;;;;;;2.00;2.00;;;;;16.82;85.33;99629.69;6220839;22;45375;-84
2023/10/22 04:07:23;;;;;;;;;1.25;1.25;;;;;16.91;85.23;99634.78;6246966;22;46341;-83
2023/10/22 04:09:50;;;;;;;;;2.00;2.00;;;;;16.96;84.90;99654.31;6221411;22;45448;-85
2023/10/22 04:12:15;;;;;;;;;2.00;1.00;;;;;16.95;85.19;99651.69;6221099;22;46982;-84
2023/10/22 04:14:40;;;;;;;;;2.00;2.00;;;;;16.89;84.86;99663.50;6247332;22;44878;-86
2023/10/22 04:17:06;;;;;;;;;2.00;1.67;;;;;16.90;85.54;99664.38;6248797;22;45447;-84
2023/10/22 04:19:31;;;;;;;;;3.00;1.00;;;;;16.84;85.11;99659.19;6247521;22;45516;-84
2023/10/22 04:21:57;;;;;;;;;1.25;1.25;;;;;16.92;85.47;99667.88;6220520;22;46929;-84
2023/10/22 04:24:22;;;;;;;;;2.00;2.00;;;;;16.93;84.76;99669.66;6221560;22;45285;-84
2023/10/22 04:26:50;;;;;;;;;1.00;1.00;;;;;16.78;84.76;99660.19;6247732;22;45153;-84
2023/10/22 04:29:16;;;;;;;;;1.75;1.75;;;;;16.80;85.09;99670.00;6248287;22;45245;-84
2023/10/22 04:31:42;;;;;;;;;2.00;2.00;;;;;16.95;85.24;99679.44;6249803;22;46444;-84
2023/10/22 04:34:08;;;;;;;;;4.00;1.75;;;;;16.74;84.80;99686.28;6246571;22;45619;-84
2023/10/22 04:36:46;;;;;;;;;3.50;1.25;;;;;16.96;84.79;99686.53;6222330;22;45052;-83
2023/10/22 04:39:14;;;;;;;;;0.00;0.00;;;;;16.88;85.27;99699.31;6248925;22;45337;-84
2023/10/22 04:41:40;;;;;;;;;2.00;2.00;;;;;16.72;85.45;99709.56;6222240;22;47198;-84
2023/10/22 04:44:06;;;;;;;;;2.00;1.00;;;;;16.69;85.43;99703.44;6220057;22;45230;-84
2023/10/22 04:46:31;;;;;;;;;2.75;1.25;;;;;16.55;85.13;99702.00;6221014;22;45350;-84
2023/10/22 04:48:56;;;;;;;;;2.00;2.00;;;;;16.61;84.93;99709.00;6246634;22;44796;-84
2023/10/22 04:51:22;;;;;;;;;3.00;3.00;;;;;16.60;84.67;99709.91;6218927;22;46915;-84
2023/10/22 04:53:47;;;;;;;;;1.00;1.00;;;;;16.61;84.60;99714.38;6247937;22;45340;-84
2023/10/22 04:56:13;;;;;;;;;2.75;2.50;;;;;16.58;84.69;99723.41;6218065;22;44981;-84
2023/10/22 04:58:38;;;;;;;;;3.00;2.00;;;;;16.55;85.08;99728.84;6243834;22;45050;-84
2023/10/22 05:01:04;;;;;;;;;3.75;3.50;;;;;16.59;84.76;99735.00;6217531;22;47863;-84
2023/10/22 05:03:29;;;;;;;;;2.50;0.50;;;;;16.54;84.39;99729.78;6223172;22;45430;-83
2023/10/22 05:05:55;;;;;;;;;2.00;1.00;;;;;16.62;84.41;99734.03;6245884;22;45298;-85
2023/10/22 05:08:23;;;;;;;;;1.00;1.00;;;;;16.63;84.43;99738.50;6222429;22;45425;-85
2023/10/22 05:10:49;;;;;;;;;1.00;1.00;;;;;16.72;84.13;99747.16;6245022;22;47295;-85
2023/10/22 05:13:14;;;;;;;;;2.00;2.00;;;;;16.57;84.21;99737.72;6223569;22;44823;-84
2023/10/22 05:15:40;;;;;;;;;3.00;3.00;;;;;16.68;84.09;99749.97;6221943;22;45300;-83
2023/10/22 05:18:07;;;;;;;;;1.25;1.00;;;;;16.67;83.93;99748.22;6223522;22;45240;-83
2023/10/22 05:20:33;;;;;;;;;1.25;1.25;;;;;16.62;84.45;99744.78;6222691;22;46228;-84
2023/10/22 05:22:58;;;;;;;;;4.00;2.75;;;;;16.76;84.16;99769.44;6219637;22;45457;-84
2023/10/22 05:25:24;;;;;;;;;2.00;2.00;;;;;16.73;83.99;99759.69;6222588;22;44787;-83
2023/10/22 05:27:49;;;;;;;;;4.75;3.25;;;;;16.78;83.94;99756.84;6220393;22;44780;-84
2023/10/22 05:30:52;;;;;;;;;4.33;3.67;;;;;17.18;83.01;99777.28;6221221;22;45076;-85
2023/10/22 05:33:17;;;;;;;;;2.50;2.25;;;;;16.90;83.24;99772.66;6221763;22;45370;-85
2023/10/22 05:35:43;;;;;;;;;2.00;2.00;;;;;16.93;83.45;99783.34;6220157;22;45162;-83
2023/10/22 05:38:08;;;;;;;;;1.00;1.00;;;;;16.96;83.36;99779.69;6245113;22;45520;-84
2023/10/22 05:40:37;;;;;;;;;3.25;2.50;;;;;17.10;83.12;99776.63;6219210;22;47086;-83
2023/10/22 05:43:03;;;;;;;;;3.25;2.25;;;;;16.82;83.23;99772.00;6222155;22;45411;-84
2023/10/22 05:45:28;;;;;;;;;1.75;1.75;;;;;16.86;83.54;99780.84;6247120;22;45429;-85
2023/10/22 05:47:54;;;;;;;;;3.50;2.25;;;;;16.88;83.37;99790.63;6221400;22;44836;-84
2023/10/22 05:50:19;;;;;;;;;5.50;2.50;;;;;16.92;83.72;99803.06;6220001;22;46818;-84
2023/10/22 05:52:45;;;;;;;;;3.00;1.25;;;;;16.78;83.25;99776.56;6222249;22;45286;-84
2023/10/22 05:55:13;;;;;;;;;1.50;0.00;;;;;16.86;83.61;99802.34;6220212;22;44752;-84
2023/10/22 05:57:39;;;;;;;;;2.00;1.00;;;;;16.85;83.50;99804.16;6221857;22;45458;-85
2023/10/22 06:00:07;;;;;;;;;4.33;3.67;;;;;16.88;83.53;99805.88;6222897;22;47176;-85
2023/10/22 06:02:33;;;;;;;;;2.67;2.00;;;;;16.88;83.60;99813.94;6221374;22;45299;-84
2023/10/22 06:04:59;;;;;;;;;2.50;2.50;;;;;16.89;83.32;99813.88;6220701;22;45465;-84
2023/10/22 06:07:24;;;;;;;;;2.50;2.50;;;;;16.91;83.67;99816.53;6221374;22;45381;-84
2023/10/22 06:09:50;;;;;;;;;2.75;2.75;;;;;16.84;83.42;99805.06;6216857;22;47240;-84
2023/10/22 06:12:16;;;;;;;;;2.00;2.00;;;;;16.95;83.58;99824.47;6217728;22;45205;-84
2023/10/22 06:14:41;;;;;;;;;2.67;2.67;;;;;16.96;83.64;99831.59;6244493;22;45351;-84
2023/10/22 06:17:07;;;;;;;;;3.00;2.00;;;;;16.93;83.58;99831.69;6219106;22;44926;-84
2023/10/22 06:19:33;;;;;;;;;2.00;2.00;;;;;16.92;83.29;99829.03;6218148;22;47012;-83
2023/10/22 06:21:58;;;;;;;;;3.50;2.00;;;;;16.84;83.35;99829.22;6227066;22;45433;-82
2023/10/22 06:24:25;;;;;;;;;3.00;2.33;;;;;16.93;83.41;99847.81;6238567;22;45242;-83
2023/10/22 06:26:51;;;;;;;;;2.67;2.00;;;;;17.07;83.82;99850.13;6239986;22;44789;-83
2023/10/22 06:29:17;;;;;;;;;3.00;2.00;;;;;16.85;83.43;99841.75;6239736;22;45081;-84
2023/10/22 06:31:42;;;;;;;;;2.00;2.00;;;;;16.84;83.73;99839.97;6239712;22;44929;-84
2023/10/22 06:34:07;;;;;;;;;2.00;1.00;;;;;16.88;83.53;99860.47;6237933;22;44850;-84
2023/10/22 06:36:33;;;;;;;;;1.67;1.67;;;;;16.86;83.30;99856.94;6238240;22;44797;-84
2023/10/22 06:38:58;;;;;;;;;2.00;2.00;;;;;16.88;83.97;99867.63;6238873;22;45144;-83
2023/10/22 06:41:25;;;;;;;;;1.00;1.00;;;;;16.84;83.68;99850.72;6239607;22;44724;-83
2023/10/22 06:43:51;;;;;;;;;0.00;0.00;;;;;16.94;83.89;99876.41;6263360;22;44910;-83
2023/10/22 06:46:17;;;;;;;;;1.00;1.00;;;;;16.75;83.87;99845.56;6239639;22;44746;-83
2023/10/22 06:48:43;;;;;;;;;1.00;1.00;;;;;16.81;83.71;99861.56;6238149;22;47137;-84
2023/10/22 06:55:15;;;;;;;;;3.33;2.67;;;;;17.27;83.09;99895.28;6219904;22;44886;-85
2023/10/22 06:57:41;;;;;;;;;1.00;1.00;;;;;16.97;83.83;99903.22;6215564;22;45377;-85
2023/10/22 07:00:10;;;;;;;;;1.00;1.00;;;;;17.02;83.39;99894.16;6192181;22;45344;-85
2023/10/22 07:02:35;;;;;;;;;1.33;1.00;;;;;17.01;83.59;99904.00;6192731;22;45313;-85
2023/10/22 07:05:01;;;;;;;;;1.33;1.33;;;;;17.08;83.53;99910.97;6191009;23;44966;-85
2023/10/22 07:07:26;;;;;;;;;2.33;1.33;;;;;17.04;83.32;99913.78;6189347;23;44845;-86
2023/10/22 07:09:52;;;;;;;;;2.50;2.00;;;;;17.00;83.54;99910.28;6193429;22;45312;-85
2023/10/22 07:12:17;;;;;;;;;2.00;2.00;;;;;16.91;83.60;99911.41;6214730;22;45325;-85
2023/10/22 07:14:43;;;;;;;;;1.00;1.00;;;;;17.02;83.61;99923.69;6192909;23;44850;-84
2023/10/22 07:20:31;;;;;;;;;1.00;1.00;;;;;17.11;83.40;99940.47;6191742;23;44826;-84
2023/10/22 07:22:58;;;;;;;;;3.00;3.00;;;;;17.14;83.68;99945.75;6189806;22;44914;-84
2023/10/22 07:25:23;;;;;;;;;0.75;0.75;;;;;17.18;83.65;99949.25;6190870;23;45033;-84
2023/10/22 07:27:49;;;;;;;;;2.50;0.75;;;;;17.22;83.53;99950.06;6192850;22;44879;-84
2023/10/22 07:30:15;;;;;;;;;1.00;0.25;;;;;17.30;83.06;99956.97;6213477;22;47082;-83
2023/10/22 07:36:07;;;;;;;;;0.50;0.50;;;;;17.39;82.90;99977.34;6194832;22;45271;-85
2023/10/22 07:38:33;;;;;;;;;2.50;1.75;;;;;17.46;82.83;99980.78;6207491;22;44886;-83
2023/10/22 07:40:59;;;;;;;;;1.00;1.00;;;;;17.40;82.60;99982.69;6209217;22;44850;-83
2023/10/22 07:43:28;;;;;;;;;2.00;2.00;;;;;17.52;82.65;99989.56;6208832;22;44699;-83
2023/10/22 07:45:58;;;;;;;;;2.00;0.25;;;;;17.54;82.69;99994.91;6208793;22;44778;-83
2023/10/22 07:48:23;;;;;;;;;2.75;1.00;;;;;17.34;82.75;99993.59;6232539;22;44815;-83
2023/10/22 07:50:49;;;;;;;;;3.00;3.00;;;;;17.36;83.03;99994.44;6206968;22;46859;-83
2023/10/22 07:53:15;;;;;;;;;1.75;1.75;;;;;17.42;82.75;100001.47;6207482;22;44797;-83
2023/10/22 07:55:42;;;;;;;;;0.50;0.50;;;;;17.39;82.55;100004.22;6240694;22;44784;-84
2023/10/22 07:58:07;;;;;;;;;3.00;3.00;;;;;17.40;82.58;100000.63;6270478;22;44724;-84
2023/10/22 08:00:34;;;;;;;;;3.33;2.00;;;;;17.39;82.71;100001.53;6269950;22;44951;-83
2023/10/22 08:03:00;;;;;;;;;1.00;1.00;;;;;17.42;82.58;100000.59;6243063;22;44753;-83
2023/10/22 08:05:26;;;;;;;;;2.50;2.00;;;;;17.44;82.47;100010.38;6253035;22;45315;-85
2023/10/22 08:07:51;;;;;;;;;1.00;1.00;;;;;17.51;82.52;100011.09;6246496;22;45345;-85
2023/10/22 08:10:16;;;;;;;;;1.25;1.25;;;;;17.45;82.38;99987.06;6242754;22;45523;-85
2023/10/22 08:12:42;;;;;;;;;2.00;1.00;;;;;17.55;82.35;99996.66;6246571;22;45340;-85
2023/10/22 08:15:09;;;;;;;;;4.50;3.50;;;;;17.67;82.52;100011.56;6249414;22;45376;-85
2023/10/22 08:17:34;;;;;;;;;2.50;2.50;;;;;17.76;82.47;100012.22;6249517;22;45070;-84
2023/10/22 08:20:00;;;;;;;;;2.00;0.75;;;;;17.80;82.90;100013.91;6244574;22;47049;-85
2023/10/22 08:22:25;;;;;;;;;3.25;2.25;;;;;17.89;82.74;100017.28;6249273;22;45377;-85
2023/10/22 08:24:51;;;;;;;;;3.75;2.75;;;;;17.98;82.65;100017.06;6222462;22;44826;-85
2023/10/22 08:27:16;;;;;;;;;1.25;1.25;;;;;18.08;82.13;100020.38;6246749;22;45336;-85
2023/10/22 08:29:41;;;;;;;;;2.25;1.50;;;;;18.15;82.30;100017.44;6248450;22;46910;-84
2023/10/22 08:32:07;;;;;;;;;1.50;1.00;;;;;18.19;81.95;100015.53;6221703;22;45335;-84
2023/10/22 08:34:33;;;;;;;;;2.00;1.00;;;;;18.31;82.00;100034.03;6246921;22;45419;-84
2023/10/22 08:36:58;;;;;;;;;1.00;0.25;;;;;18.33;81.12;100029.47;6247221;22;45196;-85
2023/10/22 08:39:28;;;;;;;;;3.50;2.25;;;;;18.59;81.60;100041.28;6247146;22;46657;-85
2023/10/22 08:42:09;;;;;;;;;4.67;3.00;;;;;18.42;81.08;100012.19;6246247;22;45393;-85
2023/10/22 08:44:44;;;;;;;;;2.33;2.33;;;;;18.34;81.07;100025.88;6248935;22;45178;-85
2023/10/22 08:47:10;;;;;;;;;2.00;1.00;;;;;18.18;80.98;100046.97;6223390;22;45465;-84
2023/10/22 08:49:38;;;;;;;;;2.00;1.25;;;;;18.39;81.62;100058.03;6222993;22;48187;-85
2023/10/22 08:52:04;;;;;;;;;3.00;1.00;;;;;18.21;81.34;100053.19;6247916;22;44867;-85
2023/10/22 08:54:30;;;;;;;;;2.75;1.50;;;;;18.24;81.21;100062.06;6225808;22;45368;-86
2023/10/22 08:56:55;;;;;;;;;1.00;1.00;;;;;18.25;80.67;100062.94;6246143;22;44815;-85
2023/10/22 08:59:22;;;;;;;;;3.00;2.00;;;;;18.29;80.80;100060.09;6221325;22;45368;-84
2023/10/22 09:01:47;;;;;;;;;2.75;2.75;;;;;18.29;80.73;100065.50;6244844;22;44692;-85
2023/10/22 09:04:13;;;;;;;;;0.00;0.00;;;;;18.36;80.60;100066.19;6246442;22;44857;-83
2023/10/22 09:06:39;;;;;;;;;2.00;1.00;;;;;18.58;80.55;100080.81;6222182;22;44850;-85
2023/10/22 09:09:04;;;;;;;;;1.00;1.00;;;;;18.56;79.61;100081.75;6222677;22;45264;-84
2023/10/22 09:11:30;;;;;;;;;3.00;2.00;;;;;18.64;79.09;100081.53;6222057;22;44782;-85
2023/10/22 09:13:55;;;;;;;;;0.00;0.00;;;;;18.69;79.29;100085.00;6220814;22;45425;-85
2023/10/22 09:16:32;;;;;;;;;1.00;1.00;;;;;19.02;78.61;100083.09;6221321;22;45824;-84
2023/10/22 09:18:58;;;;;;;;;2.25;1.25;;;;;19.02;78.56;100101.09;6223366;22;45500;-84
2023/10/22 09:21:40;;;;;;;;;2.00;1.50;;;;;19.28;78.09;100082.28;6220480;22;45299;-84
2023/10/22 09:24:05;;;;;;;;;2.50;2.50;;;;;19.27;77.15;100099.41;6220655;22;44775;-84
2023/10/22 09:26:47;;;;;;;;;2.25;2.00;;;;;19.51;76.94;100102.22;6221925;22;45688;-84
2023/10/22 09:29:13;;;;;;;;;3.25;1.75;;;;;19.41;76.96;100098.06;6248107;22;47147;-84
2023/10/22 09:31:48;;;;;;;;;2.00;2.00;;;;;19.69;76.71;100101.63;6221386;22;44810;-84
2023/10/22 09:34:28;;;;;;;;;3.00;2.75;;;;;19.83;75.31;100101.16;6216828;22;44762;-87
2023/10/22 09:36:55;;;;;;;;;3.75;1.75;;;;;19.68;75.71;100090.88;6242297;22;44815;-85
2023/10/22 09:39:37;;;;;;;;;1.75;1.25;;;;;19.93;74.13;100097.19;6216617;22;47137;-85
2023/10/22 09:42:53;;;;;;;;;3.67;2.00;;;;;20.05;74.10;100101.28;6245559;22;44776;-84
2023/10/22 09:45:20;;;;;;;;;3.25;3.25;;;;;19.71;73.31;100094.41;6219352;22;44823;-84
2023/10/22 09:47:54;;;;;;;;;2.25;1.75;;;;;19.89;73.72;100097.38;6222983;22;44707;-85
2023/10/22 09:50:22;;;;;;;;;0.75;0.75;;;;;19.76;73.47;100096.94;6247710;22;47363;-84
2023/10/22 09:52:50;;;;;;;;;3.00;2.00;;;;;19.78;73.48;100100.44;6221536;22;45393;-84
2023/10/22 09:55:19;;;;;;;;;3.00;3.00;;;;;19.75;73.80;100096.06;6221453;22;44834;-85
2023/10/22 09:57:46;;;;;;;;;4.50;2.00;;;;;19.77;73.74;100102.28;6244950;22;45278;-83
2023/10/22 10:00:15;;;;;;;;;4.00;2.00;;;;;19.67;73.18;100108.84;6218761;22;45317;-83
2023/10/22 10:02:42;;;;;;;;;4.00;2.67;;;;;19.77;72.16;100109.47;6227315;22;45416;-83
2023/10/22 10:05:11;;;;;;;;;4.00;2.50;;;;;19.68;72.01;100116.03;6264642;22;44875;-84
2023/10/22 10:07:41;;;;;;;;;2.00;2.00;;;;;19.81;71.60;100112.94;6240447;22;45062;-84
2023/10/22 10:10:08;;;;;;;;;2.00;0.00;;;;;19.56;70.33;100114.63;6239857;22;45436;-84
2023/10/22 10:12:40;;;;;;;;;0.00;0.00;;;;;19.64;69.76;100111.66;6240092;22;44839;-85
2023/10/22 10:15:06;;;;;;;;;1.00;1.00;;;;;19.50;68.96;100119.34;6264575;22;44701;-84
2023/10/22 10:17:54;;;;;;;;;0.00;0.00;;;;;19.66;69.02;100111.63;6238617;22;45000;-84
2023/10/22 10:20:24;;;;;;;;;2.50;1.75;;;;;19.67;69.45;100116.94;6238328;22;46726;-84
2023/10/22 10:23:06;;;;;;;;;2.25;1.00;;;;;19.69;69.19;100120.50;6237936;22;45245;-84
2023/10/22 10:25:33;;;;;;;;;4.25;2.50;;;;;19.64;68.67;100124.28;6263685;22;44866;-84
2023/10/22 10:28:06;;;;;;;;;1.25;1.25;;;;;19.78;69.01;100122.03;6264335;22;44893;-84
2023/10/22 10:30:33;;;;;;;;;1.00;1.00;;;;;19.70;68.38;100127.66;6263365;22;47145;-84
2023/10/22 10:32:59;;;;;;;;;2.00;2.00;;;;;19.67;67.82;100126.88;6263806;22;45251;-84
2023/10/22 10:35:27;;;;;;;;;1.00;1.00;;;;;19.77;68.38;100120.25;6239981;22;45175;-84
2023/10/22 10:38:15;;;;;;;;;3.75;1.50;;;;;19.94;67.04;100123.28;6238196;22;44780;-83
2023/10/22 10:44:08;;;;;;;;;2.00;2.00;;;;;19.81;66.37;100118.34;6228782;22;44870;-84
2023/10/22 10:46:34;;;;;;;;;5.75;3.00;;;;;19.69;67.00;100123.19;6238774;22;44910;-83
2023/10/22 10:48:59;;;;;;;;;1.00;1.00;;;;;19.83;66.93;100125.44;6264659;22;45328;-84
2023/10/22 10:51:25;;;;;;;;;1.25;1.25;;;;;19.75;67.34;100128.44;6263837;22;47116;-84
2023/10/22 10:54:20;;;;;;;;;2.50;1.75;;;;;20.08;66.48;100130.91;6238085;22;44947;-84
2023/10/22 10:56:55;;;;;;;;;1.00;1.00;;;;;20.09;65.00;100132.66;6206483;22;45560;-85
2023/10/22 10:59:28;;;;;;;;;1.50;1.50;;;;;20.02;65.42;100131.13;6223764;22;44830;-84
2023/10/22 11:02:14;;;;;;;;;1.00;1.00;;;;;19.98;64.50;100129.44;6225705;22;46092;-84
2023/10/22 11:04:46;;;;;;;;;1.00;1.00;;;;;19.96;62.96;100131.31;6222526;22;45453;-85
2023/10/22 11:07:13;;;;;;;;;1.00;1.00;;;;;19.71;63.42;100121.38;6246190;22;44784;-84
2023/10/22 11:09:39;;;;;;;;;1.50;1.00;;;;;19.76;63.43;100135.56;6222773;22;45209;-84
2023/10/22 11:12:08;;;;;;;;;2.25;1.25;;;;;19.74;63.25;100115.84;6246356;22;47084;-85
2023/10/22 11:14:36;;;;;;;;;4.00;1.00;;;;;19.76;62.63;100157.16;6221942;22;45303;-84
2023/10/22 11:17:02;;;;;;;;;2.75;1.50;;;;;19.69;63.44;100149.28;6219605;22;44776;-85
2023/10/22 11:19:30;;;;;;;;;2.00;1.00;;;;;19.68;63.76;100126.81;6219042;22;45007;-85
2023/10/22 11:21:56;;;;;;;;;2.00;1.50;;;;;19.77;63.70;100148.16;6192585;22;47244;-85
2023/10/22 11:24:28;;;;;;;;;2.25;1.00;;;;;19.86;64.13;100102.91;6243189;22;45329;-85
2023/10/22 11:26:55;;;;;;;;;2.75;2.00;;;;;19.71;63.75;100128.56;6245587;22;44784;-85
2023/10/22 11:29:21;;;;;;;;;3.25;2.25;;;;;19.80;62.63;100135.47;6216893;22;44841;-85
2023/10/22 11:31:51;;;;;;;;;2.25;1.50;;;;;20.04;61.92;100140.03;6217615;22;47073;-85
2023/10/22 11:34:18;;;;;;;;;3.25;0.25;;;;;19.78;61.77;100132.84;6219639;22;44786;-85
2023/10/22 11:36:50;;;;;;;;;2.50;0.75;;;;;19.85;61.26;100141.59;6244147;22;45367;-85
2023/10/22 11:39:15;;;;;;;;;1.75;1.00;;;;;19.86;61.67;100154.16;6245899;22;45313;-86
2023/10/22 11:41:47;;;;;;;;;1.00;0.50;;;;;19.73;61.12;100130.28;6220837;22;46143;-85
2023/10/22 11:44:33;;;;;;;;;1.75;1.00;;;;;20.17;61.23;100146.75;6220080;22;44901;-85
2023/10/22 11:47:21;;;;;;;;;3.75;2.25;;;;;20.13;61.22;100137.00;6219295;22;44936;-85